Aérodrome :
LOGIN :

S'inscrire | Disclaimer

   EN    FR    IT 

 










Légende :    VFR   VFR Marginal   IFR   IFR Intensif   IFR Très Intensif
Visi : 
Plafond : 
>= 8 km
>= 3000ft
5 à 8 km
1000 à 3000 ft
1500m à 5 km
500 à 1000 ft
800 à 1500m
200 à 500 ft
< 800m
< 200 ft
Symboles :   Orages  Brouillard  Fortes neiges  Fortes précipitations  Vent > 20 kt
SIGMETs :   Divers  Orages  Givrage  Turbulence  Onde Orograph.  Cendres Volcan.






- Altitude de l'aérodrome : 405 ft
- Code IATA : ODH


EGVO - RAF Odiham

DERNIER METAR :
  • 131950Z 36006KT 5000 BR FEW022CB BKN060 20/19 Q1013 NOSIG RMK WHT WHT

METARs EXPIRÉS :
  • 131850Z 35005KT 6000 HZ FEW022CB SCT060 20/19 Q1012 BECMG 8000 HZ RMK WHT BECMG BLU
  • 131750Z 03008KT 6000 HZ FEW009 FEW025TCU SCT150 BKN300 20/19 Q1012 BECMG 8000 HZ RMK WHT BECMG BLU

TAF TAF EGVO
Valide du 13 à 18h jusqu'au 14 à 06h UTC


131648Z 1318/1406 04007KT 9999 FEW010 SCT030
PROB40
TEMPO 1318/1406 6000 SHRA SCT030CB
PROB30
TEMPO 1318/1322 VRB15G25KT 3000 +SHRA TSGR BKN024CB
PROB30
TEMPO 1322/1402 4000 TSRA BKN010 BKN020CB
BECMG 1402/1405 BKN010
PROB30
TEMPO 1402/1406 4000 TSRA SCT005 BKN020CB



MET'MAP, la Météo Aéronautique d'un coup d'oeil ! - Copyright ORBIFLY Décembre 2007 - Disclaimer

ORBIFLY MET'MAP TEAM :

Programmation & Développement : Alexandra Zaïnal
Sur une idée originale de : Baudouin d'Aumeries
Assistance à la programmation : Marc-Olivier Méhu
Soutien technique & logistique : Manuel Goepfert

Contact : metmap@orbifly.com




SOURCES & CREDITS :

   NOAA